Time;durP1;ratioP1;P1;durP2;ratioP2;P2;SDS_P1;SDS_P2;PMS_P1;PMS_P2;Temp;Humidity;BMP_temperature;BMP_pressure;BME280_temperature;BME280_humidity;BME280_pressure;Samples;Min_cycle;Max_cycle;Signal;HPM_P1;HPM_P2
2021/03/23 00:02:28;;;;;;;17.50;8.73;;;;;;;;;;4987363;28;20022;-84
2021/03/23 00:05:14;;;;;;;18.05;9.23;;;;;;;;;;4998053;28;20414;-82
2021/03/23 00:07:59;;;;;;;17.33;8.48;;;;;;;;;;4988285;28;20019;-82
2021/03/23 00:10:44;;;;;;;19.10;9.30;;;;;;;;;;4986498;28;20086;-82
2021/03/23 00:13:29;;;;;;;17.40;8.50;;;;;;;;;;4989157;28;20030;-83
2021/03/23 00:16:16;;;;;;;15.52;8.25;;;;;;;;;;4983511;28;20034;-83
2021/03/23 00:19:02;;;;;;;16.75;9.00;;;;;;;;;;4987518;28;20015;-84
2021/03/23 00:21:47;;;;;;;16.60;8.98;;;;;;;;;;4990069;28;20030;-86
2021/03/23 00:24:32;;;;;;;17.98;9.43;;;;;;;;;;4997654;28;20053;-84
2021/03/23 00:27:17;;;;;;;16.65;8.95;;;;;;;;;;4972172;28;20081;-83
2021/03/23 00:30:04;;;;;;;15.23;8.20;;;;;;;;;;4985930;28;20096;-84
2021/03/23 00:32:50;;;;;;;15.68;8.75;;;;;;;;;;4990980;28;20022;-84
2021/03/23 00:35:35;;;;;;;18.73;8.52;;;;;;;;;;4987077;28;20077;-84
2021/03/23 00:38:20;;;;;;;17.10;9.40;;;;;;;;;;4984935;28;20030;-84
2021/03/23 00:41:06;;;;;;;18.02;9.45;;;;;;;;;;4995081;28;20093;-83
2021/03/23 00:43:51;;;;;;;17.15;9.45;;;;;;;;;;5000380;28;20497;-83
2021/03/23 00:46:37;;;;;;;17.35;9.48;;;;;;;;;;4966365;28;20063;-83
2021/03/23 00:49:22;;;;;;;18.38;8.65;;;;;;;;;;4972914;28;20093;-83
2021/03/23 00:52:07;;;;;;;16.35;10.18;;;;;;;;;;4972461;28;20038;-83
2021/03/23 00:54:52;;;;;;;20.23;10.48;;;;;;;;;;4987787;28;20032;-83
2021/03/23 00:57:38;;;;;;;26.73;12.05;;;;;;;;;;4986604;28;20596;-83
2021/03/23 01:00:23;;;;;;;18.52;10.73;;;;;;;;;;4986530;28;20045;-82
2021/03/23 01:03:09;;;;;;;20.98;11.20;;;;;;;;;;4974356;28;20030;-84
2021/03/23 01:05:54;;;;;;;22.50;11.25;;;;;;;;;;4959514;28;20023;-83
2021/03/23 01:08:39;;;;;;;18.67;10.82;;;;;;;;;;4965225;28;20034;-83
2021/03/23 01:11:24;;;;;;;19.83;11.60;;;;;;;;;;4974037;28;20118;-84
2021/03/23 01:14:10;;;;;;;18.38;12.02;;;;;;;;;;4974409;28;20153;-83
2021/03/23 01:16:55;;;;;;;22.45;11.68;;;;;;;;;;4972094;28;20029;-82
2021/03/23 01:19:40;;;;;;;20.75;12.30;;;;;;;;;;4971567;28;20040;-86
2021/03/23 01:22:26;;;;;;;23.75;11.85;;;;;;;;;;4970814;28;20088;-84
2021/03/23 01:25:11;;;;;;;20.73;12.50;;;;;;;;;;4970657;28;20047;-81
2021/03/23 01:27:57;;;;;;;21.48;10.90;;;;;;;;;;4987458;28;20034;-85
2021/03/23 01:30:42;;;;;;;22.65;11.73;;;;;;;;;;4970855;28;20062;-85
2021/03/23 01:33:27;;;;;;;17.73;11.07;;;;;;;;;;4986708;28;20029;-85
2021/03/23 01:36:12;;;;;;;22.02;12.52;;;;;;;;;;4972559;28;20022;-84
2021/03/23 01:38:57;;;;;;;20.63;12.02;;;;;;;;;;4981046;28;20019;-84
2021/03/23 01:41:43;;;;;;;23.48;13.40;;;;;;;;;;4987561;28;20084;-84
2021/03/23 01:44:28;;;;;;;20.95;11.85;;;;;;;;;;4974647;28;20042;-84
2021/03/23 01:47:13;;;;;;;20.65;12.60;;;;;;;;;;4985075;28;20022;-84
2021/03/23 01:49:58;;;;;;;21.80;11.93;;;;;;;;;;4987336;28;20457;-81
2021/03/23 01:52:46;;;;;;;21.70;11.35;;;;;;;;;;4985326;28;20033;-83
2021/03/23 01:55:31;;;;;;;23.15;13.25;;;;;;;;;;4982754;28;20022;-82
2021/03/23 01:58:19;;;;;;;23.20;12.38;;;;;;;;;;4981306;28;20042;-82
2021/03/23 02:01:06;;;;;;;23.50;12.18;;;;;;;;;;5000598;28;20027;-84
2021/03/23 02:03:51;;;;;;;20.27;12.40;;;;;;;;;;4980521;28;20050;-83
2021/03/23 02:06:36;;;;;;;25.98;13.52;;;;;;;;;;4983961;28;20559;-82
2021/03/23 02:09:26;;;;;;;22.33;12.88;;;;;;;;;;4996770;28;20030;-83
2021/03/23 02:12:13;;;;;;;22.88;13.48;;;;;;;;;;4989197;28;20111;-82
2021/03/23 02:14:58;;;;;;;23.65;14.07;;;;;;;;;;4991443;28;20034;-82
2021/03/23 02:17:43;;;;;;;26.30;14.43;;;;;;;;;;4990553;28;20026;-82
2021/03/23 02:20:28;;;;;;;26.52;14.57;;;;;;;;;;5000194;28;20026;-82
2021/03/23 02:23:22;;;;;;;21.00;13.73;;;;;;;;;;4988484;28;20031;-83
2021/03/23 02:26:08;;;;;;;19.67;13.32;;;;;;;;;;4991615;28;20018;-82
2021/03/23 02:29:04;;;;;;;20.80;13.25;;;;;;;;;;5001740;28;20026;-81
2021/03/23 02:31:51;;;;;;;28.88;15.80;;;;;;;;;;4985985;28;20041;-82
2021/03/23 02:34:37;;;;;;;22.83;14.05;;;;;;;;;;4998232;28;20515;-82
2021/03/23 02:37:22;;;;;;;27.23;15.93;;;;;;;;;;4992068;28;20018;-81
2021/03/23 02:40:08;;;;;;;31.15;16.40;;;;;;;;;;4988535;28;20546;-82
2021/03/23 02:42:54;;;;;;;25.33;16.80;;;;;;;;;;5003827;28;20064;-82
2021/03/23 02:45:39;;;;;;;29.60;17.42;;;;;;;;;;4985918;28;20053;-82
2021/03/23 02:48:25;;;;;;;28.58;17.88;;;;;;;;;;4986999;28;20061;-82
2021/03/23 02:51:14;;;;;;;29.05;17.42;;;;;;;;;;4990532;28;20030;-82
2021/03/23 02:54:00;;;;;;;29.45;18.35;;;;;;;;;;5000948;28;20057;-83
2021/03/23 02:56:45;;;;;;;26.98;17.52;;;;;;;;;;5002872;28;20049;-83
2021/03/23 02:59:30;;;;;;;27.10;15.50;;;;;;;;;;4987771;28;20058;-83
2021/03/23 03:02:15;;;;;;;25.13;15.57;;;;;;;;;;5004376;28;20049;-81
2021/03/23 03:05:01;;;;;;;22.90;13.80;;;;;;;;;;4988009;28;20077;-85
2021/03/23 03:07:46;;;;;;;22.42;13.98;;;;;;;;;;4987355;28;20441;-83
2021/03/23 03:10:32;;;;;;;22.67;13.35;;;;;;;;;;4989398;28;20448;-81
2021/03/23 03:13:21;;;;;;;23.38;14.27;;;;;;;;;;5003297;28;20403;-82
2021/03/23 03:16:06;;;;;;;23.65;14.32;;;;;;;;;;4987728;28;20034;-82
2021/03/23 03:18:51;;;;;;;29.02;16.30;;;;;;;;;;4994754;28;20113;-83
2021/03/23 03:21:36;;;;;;;28.95;16.13;;;;;;;;;;4986294;28;20022;-82
2021/03/23 03:24:22;;;;;;;24.52;14.18;;;;;;;;;;5002971;28;20117;-82
2021/03/23 03:27:07;;;;;;;26.98;15.07;;;;;;;;;;4999922;28;20046;-80
2021/03/23 03:29:52;;;;;;;25.80;15.20;;;;;;;;;;4995322;28;20049;-79
2021/03/23 03:32:37;;;;;;;25.10;14.70;;;;;;;;;;4996520;28;20052;-81
2021/03/23 03:35:24;;;;;;;22.80;14.00;;;;;;;;;;4985629;28;20034;-81
2021/03/23 03:38:10;;;;;;;28.40;17.90;;;;;;;;;;4994118;28;20029;-81
2021/03/23 03:40:56;;;;;;;28.17;16.23;;;;;;;;;;4986231;28;20030;-80
2021/03/23 03:43:42;;;;;;;27.58;16.55;;;;;;;;;;4984506;28;20030;-82
2021/03/23 03:46:27;;;;;;;30.42;16.23;;;;;;;;;;4971278;28;20033;-82
2021/03/23 03:49:12;;;;;;;28.48;16.77;;;;;;;;;;4982664;28;20030;-81
2021/03/23 03:51:57;;;;;;;30.55;19.30;;;;;;;;;;4972394;28;20539;-83
2021/03/23 03:54:42;;;;;;;32.17;19.02;;;;;;;;;;4971657;28;20461;-80
2021/03/23 03:57:28;;;;;;;28.73;18.08;;;;;;;;;;4982713;28;20108;-81
2021/03/23 04:00:18;;;;;;;30.95;19.02;;;;;;;;;;4973064;28;20054;-83
2021/03/23 04:03:04;;;;;;;31.80;19.88;;;;;;;;;;4971617;28;20026;-83
2021/03/23 04:05:51;;;;;;;44.65;20.90;;;;;;;;;;4976088;28;20079;-82
2021/03/23 04:08:38;;;;;;;33.13;19.67;;;;;;;;;;4974040;28;20066;-83
2021/03/23 04:11:24;;;;;;;33.78;19.88;;;;;;;;;;4970290;28;20037;-83
2021/03/23 04:14:09;;;;;;;34.03;20.52;;;;;;;;;;4984712;28;20033;-83
2021/03/23 04:16:54;;;;;;;30.08;19.70;;;;;;;;;;4988180;28;20022;-83
2021/03/23 04:19:39;;;;;;;31.25;19.10;;;;;;;;;;4963741;28;20026;-82
2021/03/23 04:22:25;;;;;;;33.50;20.45;;;;;;;;;;4969202;28;20031;-82
2021/03/23 04:25:11;;;;;;;34.75;20.38;;;;;;;;;;4973436;28;20112;-82
2021/03/23 04:27:57;;;;;;;39.15;19.98;;;;;;;;;;4975640;28;20103;-83
2021/03/23 04:30:42;;;;;;;29.67;19.02;;;;;;;;;;4975470;28;20035;-83
2021/03/23 04:33:28;;;;;;;28.10;17.60;;;;;;;;;;4987637;28;20496;-82
2021/03/23 04:36:13;;;;;;;35.00;20.05;;;;;;;;;;4987348;28;20722;-83
2021/03/23 04:38:59;;;;;;;33.00;19.52;;;;;;;;;;4971966;28;20061;-83
2021/03/23 04:41:44;;;;;;;31.70;19.65;;;;;;;;;;4972276;28;20026;-83
2021/03/23 04:44:29;;;;;;;30.42;19.10;;;;;;;;;;4988953;28;20046;-84
2021/03/23 04:47:14;;;;;;;34.10;20.45;;;;;;;;;;4991312;28;20432;-84
2021/03/23 04:50:00;;;;;;;32.50;20.60;;;;;;;;;;4983704;28;20026;-83
2021/03/23 04:52:45;;;;;;;28.58;18.52;;;;;;;;;;5000674;28;20030;-82
2021/03/23 04:55:30;;;;;;;35.97;21.25;;;;;;;;;;4987821;28;20167;-82
2021/03/23 04:58:16;;;;;;;33.55;20.20;;;;;;;;;;4985986;28;20468;-82
2021/03/23 05:01:01;;;;;;;32.40;19.65;;;;;;;;;;4985902;28;20027;-82
2021/03/23 05:03:51;;;;;;;31.08;18.75;;;;;;;;;;4972420;28;20087;-83
2021/03/23 05:06:36;;;;;;;31.67;19.70;;;;;;;;;;4992883;28;20030;-83
2021/03/23 05:09:22;;;;;;;29.42;18.50;;;;;;;;;;5001626;28;20030;-82
2021/03/23 05:12:07;;;;;;;29.35;18.55;;;;;;;;;;4983726;28;20030;-82
2021/03/23 05:14:53;;;;;;;32.83;18.83;;;;;;;;;;5000480;28;20105;-85
2021/03/23 05:17:38;;;;;;;34.45;20.15;;;;;;;;;;4972956;28;20489;-83
2021/03/23 05:20:23;;;;;;;40.13;21.42;;;;;;;;;;4982799;28;20034;-82
2021/03/23 05:23:09;;;;;;;35.17;20.13;;;;;;;;;;4997777;28;20066;-84
2021/03/23 05:25:54;;;;;;;29.70;20.00;;;;;;;;;;5000339;28;20034;-84
2021/03/23 05:28:40;;;;;;;37.05;19.50;;;;;;;;;;5002796;28;20438;-83
2021/03/23 05:31:25;;;;;;;31.15;19.63;;;;;;;;;;4982632;28;20033;-81
2021/03/23 05:34:11;;;;;;;34.75;20.90;;;;;;;;;;4988679;28;20128;-82
2021/03/23 05:36:57;;;;;;;34.25;20.27;;;;;;;;;;4984003;28;20023;-82
2021/03/23 05:39:42;;;;;;;32.25;19.55;;;;;;;;;;4999896;28;20044;-81
2021/03/23 05:42:38;;;;;;;42.15;22.45;;;;;;;;;;4977123;28;20034;-83
2021/03/23 05:45:32;;;;;;;35.55;20.02;;;;;;;;;;4987123;28;20061;-81
2021/03/23 05:48:22;;;;;;;32.40;20.10;;;;;;;;;;4981963;28;20028;-82
2021/03/23 05:51:11;;;;;;;36.08;21.13;;;;;;;;;;4984734;28;20084;-82
2021/03/23 05:53:59;;;;;;;33.88;20.75;;;;;;;;;;4997879;28;20026;-84
2021/03/23 05:56:47;;;;;;;33.80;20.83;;;;;;;;;;4999173;28;20018;-82
2021/03/23 05:59:47;;;;;;;49.58;21.45;;;;;;;;;;4999082;28;20109;-82
2021/03/23 06:02:32;;;;;;;;;;;;;;;;;;4983658;28;20112;-83
2021/03/23 06:05:29;;;;;;;42.75;22.38;;;;;;;;;;4987684;28;19917;-84
2021/03/23 06:08:21;;;;;;;33.38;19.52;;;;;;;;;;4997401;28;20029;-82
2021/03/23 06:11:13;;;;;;;35.63;21.52;;;;;;;;;;4985448;28;20026;-82
2021/03/23 06:14:09;;;;;;;38.35;22.50;;;;;;;;;;4984454;28;20030;-81
2021/03/23 06:17:16;;;;;;;32.42;21.73;;;;;;;;;;5000336;28;20034;-81
2021/03/23 06:20:07;;;;;;;35.40;22.13;;;;;;;;;;4983994;28;20023;-82
2021/03/23 06:22:59;;;;;;;36.03;22.85;;;;;;;;;;5000182;28;20033;-81
2021/03/23 06:25:51;;;;;;;35.03;21.75;;;;;;;;;;4987049;28;20026;-82
2021/03/23 06:28:40;;;;;;;31.02;20.58;;;;;;;;;;4992490;28;20011;-80
2021/03/23 06:31:31;;;;;;;37.78;21.23;;;;;;;;;;4988874;28;20026;-82
2021/03/23 06:34:17;;;;;;;39.75;22.80;;;;;;;;;;4996444;28;20118;-83
2021/03/23 06:37:25;;;;;;;32.28;22.15;;;;;;;;;;4973798;28;20031;-84
2021/03/23 06:40:10;;;;;;;35.80;20.83;;;;;;;;;;4989598;28;20109;-83
2021/03/23 06:43:09;;;;;;;36.35;23.10;;;;;;;;;;4998278;28;20273;-82
2021/03/23 06:46:13;;;;;;;33.80;22.30;;;;;;;;;;4981003;28;20038;-83
2021/03/23 06:49:14;;;;;;;38.40;23.20;;;;;;;;;;4980648;28;20026;-82
2021/03/23 06:52:03;;;;;;;32.22;20.50;;;;;;;;;;4982342;28;20039;-82
2021/03/23 06:55:05;;;;;;;35.72;21.67;;;;;;;;;;4984134;28;20037;-81
2021/03/23 06:57:51;;;;;;;37.20;22.33;;;;;;;;;;5004192;28;20465;-81
2021/03/23 07:00:36;;;;;;;36.65;23.00;;;;;;;;;;4990203;28;20112;-81
2021/03/23 07:03:24;;;;;;;34.50;22.33;;;;;;;;;;4990589;28;20057;-81
2021/03/23 07:06:36;;;;;;;37.90;23.77;;;;;;;;;;4986886;28;20073;-84
2021/03/23 07:09:22;;;;;;;38.00;23.17;;;;;;;;;;4985352;28;20014;-83
2021/03/23 07:12:07;;;;;;;35.30;21.27;;;;;;;;;;5002262;28;20560;-83
2021/03/23 07:15:01;;;;;;;33.17;20.33;;;;;;;;;;4980205;28;20015;-81
2021/03/23 07:17:48;;;;;;;42.13;22.05;;;;;;;;;;4998363;28;20084;-82
2021/03/23 07:20:33;;;;;;;37.47;22.20;;;;;;;;;;4983908;28;20048;-81
2021/03/23 07:23:21;;;;;;;40.08;22.90;;;;;;;;;;4990589;28;20033;-81
2021/03/23 07:26:14;;;;;;;40.78;23.23;;;;;;;;;;4997813;28;20029;-82
2021/03/23 07:29:12;;;;;;;42.58;23.67;;;;;;;;;;4969121;28;21878;-81
2021/03/23 07:32:19;;;;;;;41.15;22.45;;;;;;;;;;4997940;28;20113;-81
2021/03/23 07:35:12;;;;;;;44.78;24.15;;;;;;;;;;4989201;28;20477;-81
2021/03/23 07:38:01;;;;;;;36.53;23.63;;;;;;;;;;4987018;28;20031;-81
2021/03/23 07:40:48;;;;;;;45.15;23.75;;;;;;;;;;4988568;28;20038;-82
2021/03/23 07:43:43;;;;;;;35.22;22.67;;;;;;;;;;4988958;28;20093;-83
2021/03/23 07:46:38;;;;;;;171.65;111.78;;;;;;;;;;4988090;28;20405;-85
2021/03/23 07:49:35;;;;;;;57.35;35.60;;;;;;;;;;4976052;28;20396;-82
2021/03/23 07:52:27;;;;;;;37.25;24.30;;;;;;;;;;4982784;28;20045;-84
2021/03/23 07:55:20;;;;;;;35.10;21.75;;;;;;;;;;4988172;28;20026;-83
2021/03/23 07:58:24;;;;;;;36.50;23.08;;;;;;;;;;4973769;28;20477;-84
2021/03/23 08:01:18;;;;;;;37.13;22.77;;;;;;;;;;4974517;28;20025;-83
2021/03/23 08:04:17;;;;;;;34.22;21.95;;;;;;;;;;4978442;28;20432;-84
2021/03/23 08:07:08;;;;;;;37.05;22.98;;;;;;;;;;4975150;28;20037;-84
2021/03/23 08:10:00;;;;;;;39.70;22.88;;;;;;;;;;4974143;28;20031;-83
2021/03/23 08:13:09;;;;;;;33.70;20.38;;;;;;;;;;4986606;28;20030;-83
2021/03/23 08:16:08;;;;;;;33.38;21.80;;;;;;;;;;4935573;28;20540;-84
2021/03/23 08:19:06;;;;;;;40.55;24.20;;;;;;;;;;4989594;28;20018;-82
2021/03/23 08:22:15;;;;;;;37.28;22.23;;;;;;;;;;4975865;28;20485;-82
2021/03/23 08:25:00;;;;;;;36.55;23.75;;;;;;;;;;4972746;28;20041;-83
2021/03/23 08:27:52;;;;;;;35.33;21.50;;;;;;;;;;4974384;28;20390;-82
2021/03/23 08:30:55;;;;;;;36.92;22.23;;;;;;;;;;4986850;28;20034;-82
2021/03/23 08:33:44;;;;;;;37.85;21.17;;;;;;;;;;4971933;28;20033;-82
2021/03/23 08:36:29;;;;;;;35.25;20.80;;;;;;;;;;4984768;28;20027;-84
2021/03/23 08:39:30;;;;;;;35.28;20.60;;;;;;;;;;4985672;28;20026;-85
2021/03/23 08:42:17;;;;;;;36.35;20.80;;;;;;;;;;4971287;28;20039;-86
2021/03/23 08:45:08;;;;;;;40.42;21.30;;;;;;;;;;4978456;28;20050;-82
2021/03/23 08:48:01;;;;;;;34.42;20.83;;;;;;;;;;5002114;28;20038;-83
2021/03/23 08:50:47;;;;;;;37.65;24.75;;;;;;;;;;4970472;28;20030;-83
2021/03/23 08:53:33;;;;;;;41.65;24.30;;;;;;;;;;4988514;28;20081;-83
2021/03/23 08:56:38;;;;;;;29.67;18.05;;;;;;;;;;4988410;28;20014;-84
2021/03/23 08:59:35;;;;;;;33.80;19.33;;;;;;;;;;4987504;28;20430;-84
2021/03/23 09:02:30;;;;;;;32.95;19.92;;;;;;;;;;4987910;28;20023;-82
2021/03/23 09:05:27;;;;;;;34.33;19.92;;;;;;;;;;4996186;28;20456;-84
2021/03/23 09:08:22;;;;;;;30.33;19.38;;;;;;;;;;4983737;28;20034;-84
2021/03/23 09:11:09;;;;;;;33.33;19.55;;;;;;;;;;4974654;28;20109;-86
2021/03/23 09:14:11;;;;;;;28.75;18.35;;;;;;;;;;5003190;28;20470;-84
2021/03/23 09:16:57;;;;;;;36.63;20.50;;;;;;;;;;4980581;28;20034;-85
2021/03/23 09:19:44;;;;;;;29.77;17.83;;;;;;;;;;4999431;28;20030;-85
2021/03/23 09:22:31;;;;;;;32.85;18.88;;;;;;;;;;5002857;28;20425;-83
2021/03/23 09:25:18;;;;;;;27.33;16.48;;;;;;;;;;4984101;28;20018;-83
2021/03/23 09:28:03;;;;;;;27.33;13.23;;;;;;;;;;4979373;28;20381;-85
2021/03/23 09:30:50;;;;;;;18.67;10.93;;;;;;;;;;4980534;28;20026;-85
2021/03/23 09:33:37;;;;;;;19.45;11.35;;;;;;;;;;5002237;28;20031;-82
2021/03/23 09:36:30;;;;;;;20.20;12.00;;;;;;;;;;4999675;28;20145;-84
2021/03/23 09:39:15;;;;;;;18.67;11.25;;;;;;;;;;4977306;28;20022;-84
2021/03/23 09:42:19;;;;;;;20.33;10.98;;;;;;;;;;4985228;28;20018;-84
2021/03/23 09:45:05;;;;;;;19.88;10.63;;;;;;;;;;4966608;28;20134;-83
2021/03/23 09:47:50;;;;;;;21.55;12.85;;;;;;;;;;4946932;28;20034;-83
2021/03/23 09:50:55;;;;;;;23.52;14.23;;;;;;;;;;4951234;28;20031;-84
2021/03/23 09:53:42;;;;;;;19.13;11.50;;;;;;;;;;4953675;28;20331;-83
2021/03/23 09:56:36;;;;;;;20.30;12.13;;;;;;;;;;4967241;28;20027;-82
2021/03/23 09:59:24;;;;;;;17.92;11.02;;;;;;;;;;4951745;28;20437;-84
2021/03/23 10:02:30;;;;;;;17.55;9.90;;;;;;;;;;4953130;28;20041;-84
2021/03/23 10:05:23;;;;;;;19.60;9.35;;;;;;;;;;4946701;28;20029;-84
2021/03/23 10:08:14;;;;;;;14.25;6.93;;;;;;;;;;4951511;28;20085;-84
2021/03/23 10:11:10;;;;;;;14.52;7.72;;;;;;;;;;4964106;28;20033;-85
2021/03/23 10:13:58;;;;;;;11.95;7.70;;;;;;;;;;4960149;28;20038;-85
2021/03/23 10:16:44;;;;;;;15.98;8.55;;;;;;;;;;4960050;28;20169;-85
2021/03/23 10:19:34;;;;;;;16.58;8.20;;;;;;;;;;4946923;28;20473;-83
2021/03/23 10:22:35;;;;;;;15.15;8.82;;;;;;;;;;4964523;28;20027;-85
2021/03/23 10:25:20;;;;;;;12.50;6.88;;;;;;;;;;4946972;28;20058;-85
2021/03/23 10:28:06;;;;;;;11.65;6.82;;;;;;;;;;4943128;28;20034;-83
2021/03/23 10:31:02;;;;;;;10.82;6.15;;;;;;;;;;4946955;28;20474;-83
2021/03/23 10:34:01;;;;;;;12.63;7.28;;;;;;;;;;4953745;28;20041;-83
2021/03/23 10:36:52;;;;;;;13.50;7.37;;;;;;;;;;4950611;28;20023;-83
2021/03/23 10:39:43;;;;;;;13.80;7.10;;;;;;;;;;4947892;28;20247;-83
2021/03/23 10:42:30;;;;;;;30.52;18.48;;;;;;;;;;4936610;28;20029;-83
2021/03/23 10:45:24;;;;;;;25.42;16.02;;;;;;;;;;4950694;28;20039;-83
2021/03/23 10:48:09;;;;;;;14.70;8.68;;;;;;;;;;4946353;28;20066;-83
2021/03/23 10:51:09;;;;;;;14.20;7.72;;;;;;;;;;4945943;28;20529;-84
2021/03/23 10:54:00;;;;;;;13.77;7.18;;;;;;;;;;4944691;28;20162;-83
2021/03/23 10:56:47;;;;;;;14.23;8.38;;;;;;;;;;4955763;28;20026;-81
2021/03/23 10:59:33;;;;;;;16.20;7.75;;;;;;;;;;4945470;28;20030;-82
2021/03/23 11:02:21;;;;;;;13.57;7.80;;;;;;;;;;4967914;28;20026;-89
2021/03/23 11:05:15;;;;;;;13.30;7.60;;;;;;;;;;4947425;28;20081;-81
2021/03/23 11:08:03;;;;;;;12.85;8.07;;;;;;;;;;4951003;28;20027;-83
2021/03/23 11:10:49;;;;;;;12.27;6.90;;;;;;;;;;4960624;28;20467;-82
2021/03/23 11:13:34;;;;;;;11.77;6.88;;;;;;;;;;4963532;28;20214;-83
2021/03/23 11:16:21;;;;;;;16.65;7.57;;;;;;;;;;4949285;28;20026;-81
2021/03/23 11:19:11;;;;;;;13.07;7.07;;;;;;;;;;4949370;28;20030;-84
2021/03/23 11:21:58;;;;;;;;;;;;;;;;;;4947657;28;20035;-83
2021/03/23 11:24:44;;;;;;;13.77;8.93;;;;;;;;;;4950429;28;19906;-82
2021/03/23 11:27:29;;;;;;;14.80;8.13;;;;;;;;;;4951302;28;20104;-83
2021/03/23 11:30:15;;;;;;;12.35;7.00;;;;;;;;;;4943039;28;20138;-81
2021/03/23 11:33:00;;;;;;;12.43;7.25;;;;;;;;;;4962695;28;20706;-81
2021/03/23 11:35:45;;;;;;;10.50;6.18;;;;;;;;;;4953318;28;20094;-81
2021/03/23 11:38:31;;;;;;;10.98;6.00;;;;;;;;;;4962041;28;20172;-82
2021/03/23 11:41:47;;;;;;;11.18;7.03;;;;;;;;;;4945867;28;20037;-83
2021/03/23 11:44:35;;;;;;;22.23;14.40;;;;;;;;;;4957435;28;20046;-81
2021/03/23 11:47:42;;;;;;;13.93;7.90;;;;;;;;;;4973131;28;20481;-81
2021/03/23 11:50:29;;;;;;;12.75;7.70;;;;;;;;;;4990169;28;20038;-81
2021/03/23 11:53:15;;;;;;;13.63;7.05;;;;;;;;;;4976336;28;20542;-80
2021/03/23 11:56:00;;;;;;;14.65;7.13;;;;;;;;;;4983556;28;20026;-83
2021/03/23 11:58:45;;;;;;;14.68;7.63;;;;;;;;;;4999232;28;20037;-84
2021/03/23 12:01:31;;;;;;;21.13;8.65;;;;;;;;;;4980141;28;20026;-83
2021/03/23 12:04:16;;;;;;;12.55;7.93;;;;;;;;;;4980708;28;20022;-83
2021/03/23 12:07:14;;;;;;;12.27;7.45;;;;;;;;;;4974478;28;20034;-82
2021/03/23 12:10:09;;;;;;;13.05;8.55;;;;;;;;;;4985974;28;20485;-82
2021/03/23 12:13:04;;;;;;;14.38;7.72;;;;;;;;;;4997132;28;20032;-82
2021/03/23 12:16:15;;;;;;;13.82;8.68;;;;;;;;;;4977408;28;20022;-83
2021/03/23 12:19:02;;;;;;;19.83;10.35;;;;;;;;;;4965376;28;20038;-80
2021/03/23 12:21:49;;;;;;;19.63;10.52;;;;;;;;;;4994914;28;20083;-85
2021/03/23 12:24:34;;;;;;;15.70;10.23;;;;;;;;;;4987759;28;20033;-84
2021/03/23 12:27:19;;;;;;;16.80;9.93;;;;;;;;;;4980359;28;20118;-83
2021/03/23 12:30:05;;;;;;;17.65;10.93;;;;;;;;;;4975554;28;20026;-82
2021/03/23 12:32:51;;;;;;;18.50;10.35;;;;;;;;;;4989014;28;20038;-83
2021/03/23 12:35:37;;;;;;;17.08;10.55;;;;;;;;;;4981184;28;20026;-83
2021/03/23 12:38:22;;;;;;;17.48;10.05;;;;;;;;;;4992670;28;20731;-81
2021/03/23 12:41:14;;;;;;;23.50;12.95;;;;;;;;;;4987373;28;20097;-82
2021/03/23 12:44:00;;;;;;;19.73;11.68;;;;;;;;;;4980964;28;20489;-83
2021/03/23 12:46:45;;;;;;;17.40;10.75;;;;;;;;;;4965075;28;20050;-84
2021/03/23 12:49:31;;;;;;;19.77;10.88;;;;;;;;;;4972348;28;20437;-83
2021/03/23 12:52:21;;;;;;;18.55;11.07;;;;;;;;;;4966412;28;20034;-82
2021/03/23 12:55:07;;;;;;;16.52;10.02;;;;;;;;;;4949305;28;20053;-81
2021/03/23 12:57:54;;;;;;;20.08;10.77;;;;;;;;;;4966424;28;20038;-83
2021/03/23 13:00:39;;;;;;;18.58;9.45;;;;;;;;;;4981542;28;20037;-83
2021/03/23 13:03:25;;;;;;;18.55;9.90;;;;;;;;;;4969321;28;20032;-86
2021/03/23 13:06:12;;;;;;;18.95;11.05;;;;;;;;;;4986910;28;20049;-84
2021/03/23 13:09:00;;;;;;;16.38;9.70;;;;;;;;;;4974237;28;20022;-86
2021/03/23 13:11:48;;;;;;;19.10;10.35;;;;;;;;;;4982173;28;20027;-85
2021/03/23 13:14:34;;;;;;;15.38;9.90;;;;;;;;;;4965037;28;20065;-82
2021/03/23 13:17:22;;;;;;;18.27;10.55;;;;;;;;;;4968760;28;20077;-85
2021/03/23 13:20:08;;;;;;;17.13;10.27;;;;;;;;;;4968892;28;20477;-83
2021/03/23 13:22:59;;;;;;;21.48;10.77;;;;;;;;;;4954109;28;20441;-83
2021/03/23 13:25:48;;;;;;;21.73;11.93;;;;;;;;;;4968742;28;20609;-84
2021/03/23 13:28:36;;;;;;;16.17;10.15;;;;;;;;;;4974499;28;20519;-85
2021/03/23 13:31:23;;;;;;;15.20;9.60;;;;;;;;;;4979443;28;20026;-85
2021/03/23 13:34:29;;;;;;;17.63;10.15;;;;;;;;;;4980203;28;20022;-83
2021/03/23 13:37:18;;;;;;;17.85;10.80;;;;;;;;;;4981525;28;20057;-85
2021/03/23 13:40:04;;;;;;;14.13;8.43;;;;;;;;;;4973127;28;20026;-85
2021/03/23 13:42:50;;;;;;;18.10;9.93;;;;;;;;;;4987127;28;20091;-84
2021/03/23 13:45:35;;;;;;;17.30;10.07;;;;;;;;;;4977987;28;20690;-84
2021/03/23 13:48:24;;;;;;;15.52;9.43;;;;;;;;;;4989125;28;20460;-88
2021/03/23 13:51:12;;;;;;;21.00;9.98;;;;;;;;;;4983308;28;20068;-85
2021/03/23 13:53:57;;;;;;;14.70;9.05;;;;;;;;;;4994294;28;20521;-86
2021/03/23 13:56:43;;;;;;;24.65;16.60;;;;;;;;;;4987475;28;20030;-83
2021/03/23 13:59:28;;;;;;;15.85;9.70;;;;;;;;;;4975090;28;20601;-86
2021/03/23 14:02:14;;;;;;;16.95;9.35;;;;;;;;;;4977148;28;20512;-85
2021/03/23 14:04:59;;;;;;;17.20;10.30;;;;;;;;;;4980613;28;20255;-83
2021/03/23 14:07:46;;;;;;;14.60;9.20;;;;;;;;;;4982843;28;20057;-86
2021/03/23 14:10:32;;;;;;;16.17;9.98;;;;;;;;;;4981913;28;20062;-85
2021/03/23 14:13:17;;;;;;;16.48;9.68;;;;;;;;;;4993428;28;20018;-84
2021/03/23 14:16:03;;;;;;;19.00;10.98;;;;;;;;;;4986869;28;20022;-84
2021/03/23 14:18:48;;;;;;;14.18;8.40;;;;;;;;;;4985389;28;20022;-86
2021/03/23 14:21:35;;;;;;;13.45;8.73;;;;;;;;;;4999273;28;20525;-83
2021/03/23 14:24:21;;;;;;;16.95;9.55;;;;;;;;;;4997051;28;20052;-85
2021/03/23 14:27:07;;;;;;;17.73;10.07;;;;;;;;;;4985095;28;20037;-84
2021/03/23 14:29:52;;;;;;;15.38;8.60;;;;;;;;;;4988145;28;20077;-85
2021/03/23 14:32:38;;;;;;;15.65;9.27;;;;;;;;;;4999468;28;20037;-84
2021/03/23 14:35:23;;;;;;;13.57;8.18;;;;;;;;;;4992250;28;20374;-85
2021/03/23 14:38:14;;;;;;;17.63;9.88;;;;;;;;;;5002509;28;20458;-85
2021/03/23 14:41:00;;;;;;;16.08;9.77;;;;;;;;;;5003046;28;20045;-83
2021/03/23 14:43:45;;;;;;;16.15;10.02;;;;;;;;;;4986537;28;20073;-83
2021/03/23 14:46:31;;;;;;;21.70;10.75;;;;;;;;;;4976598;28;20060;-83
2021/03/23 14:49:16;;;;;;;16.73;9.48;;;;;;;;;;4970433;28;20359;-84
2021/03/23 14:52:02;;;;;;;13.70;9.20;;;;;;;;;;4969971;28;20114;-83
2021/03/23 14:54:51;;;;;;;18.52;10.73;;;;;;;;;;4971991;28;20088;-90
2021/03/23 14:57:40;;;;;;;14.15;9.35;;;;;;;;;;4980549;28;20026;-85
2021/03/23 15:00:26;;;;;;;14.85;9.32;;;;;;;;;;4993904;28;20057;-84
2021/03/23 15:03:13;;;;;;;16.63;9.30;;;;;;;;;;4974826;28;20382;-85
2021/03/23 15:05:58;;;;;;;15.77;9.35;;;;;;;;;;4984295;28;20078;-86
2021/03/23 15:08:48;;;;;;;15.60;8.93;;;;;;;;;;4968627;28;20109;-85
2021/03/23 15:11:35;;;;;;;14.85;9.10;;;;;;;;;;4956448;28;20023;-83
2021/03/23 15:14:21;;;;;;;14.38;10.38;;;;;;;;;;4961443;28;20041;-83
2021/03/23 15:17:06;;;;;;;13.45;8.32;;;;;;;;;;4992683;28;20030;-84
2021/03/23 15:19:52;;;;;;;17.23;12.45;;;;;;;;;;4979008;28;20072;-84
2021/03/23 15:22:37;;;;;;;33.38;22.15;;;;;;;;;;4964722;28;20037;-86
2021/03/23 15:25:30;;;;;;;19.50;13.52;;;;;;;;;;4987831;28;20030;-88
2021/03/23 15:28:16;;;;;;;18.15;10.63;;;;;;;;;;4985866;28;20464;-86
2021/03/23 15:31:01;;;;;;;13.63;9.30;;;;;;;;;;4969403;28;20026;-85
2021/03/23 15:33:46;;;;;;;17.38;9.23;;;;;;;;;;4974476;28;20049;-85
2021/03/23 15:36:36;;;;;;;18.23;9.35;;;;;;;;;;4963864;28;20034;-83
2021/03/23 15:39:21;;;;;;;16.42;8.93;;;;;;;;;;4978263;28;20358;-85
2021/03/23 15:42:09;;;;;;;14.85;9.27;;;;;;;;;;4969839;28;20043;-85
2021/03/23 15:44:56;;;;;;;14.90;9.00;;;;;;;;;;4980402;28;20046;-87
2021/03/23 15:47:43;;;;;;;13.57;8.45;;;;;;;;;;4997165;28;20038;-86
2021/03/23 15:50:28;;;;;;;15.57;9.63;;;;;;;;;;5004111;28;20057;-92
2021/03/23 15:53:34;;;;;;;16.00;10.55;;;;;;;;;;4981049;28;20078;-87
2021/03/23 15:56:39;;;;;;;15.07;8.40;;;;;;;;;;4976248;28;20034;-84
2021/03/23 15:59:25;;;;;;;18.92;9.77;;;;;;;;;;4969339;28;20018;-86
2021/03/23 16:02:14;;;;;;;16.42;8.85;;;;;;;;;;4986459;28;20018;-87
2021/03/23 16:04:59;;;;;;;18.70;8.98;;;;;;;;;;4976976;28;20054;-88
2021/03/23 16:07:45;;;;;;;16.52;9.18;;;;;;;;;;4993666;28;20026;-87
2021/03/23 16:10:30;;;;;;;16.13;8.52;;;;;;;;;;5000486;28;20022;-88
2021/03/23 16:13:15;;;;;;;15.93;10.15;;;;;;;;;;5006990;28;20543;-90
2021/03/23 16:16:02;;;;;;;17.55;9.35;;;;;;;;;;4993855;28;20026;-88
2021/03/23 16:18:47;;;;;;;16.48;9.05;;;;;;;;;;4981865;28;20027;-86
2021/03/23 16:21:35;;;;;;;15.73;9.93;;;;;;;;;;4965517;28;20036;-88
2021/03/23 16:24:22;;;;;;;15.95;10.02;;;;;;;;;;5005345;28;20492;-88
2021/03/23 16:27:09;;;;;;;16.73;9.88;;;;;;;;;;4988790;28;20109;-92